الصفحة الرئيسية
METAR-TAF:

METAR-TAF

مطار :

بليثي, كاليفورنيا, الولايات المتحدة

دائرة عرض: 33-37-09N, خط طول: 114-43-01W, ارتفاع: 121 متر

METAR: مفقودة

زمن: 19:53 (03:53 UTC)

توقعات

تاريخ ووقت الإصدار 4ساعات و 13 دقيقة قبل الساعة 23:40UTC
التوقعات صالحة من10 الساعة 00 UTC إلى 10 الساعة 24 UTC
ريح 5 عقدة من الشمال الغربي
الرؤية: 10 كم
غيوم مفككة على ارتفاع 18000 قدم
من 10 الساعة 1400 UTC
ريح 5 عقدةمن اتجاهات متغيرة
الرؤية: 10 كم
غيوم مفككة على ارتفاع 18000 قدم

TAF: KBLH 092340Z 1000/1024 32005KT P6SM BKN180 FM101400 VRB05KT P6SM BKN180

أرصاد الطقس والتوقعات من أكثر من 4000 مطار (تقارير الطقس للمطار METAR والتنبؤ بالطقس بالمطارTAF).

المحطات المتاحة هي النقط الصفراء والحمراء على الخريطة.

حرك المؤشر فوق النقطة لمعرفة اسم المحطة.

ثم انقر لمعرفة أرصاد وتوقعات الطقس.

لتغيير الخارطة: اضغط على الأزرار الخضراء مع رمز الصليب الأسود للتكبير. على الزر الأخضر مع شرطة للتصغير، أو على الأسهم الخضراء للخرائط المجاورة.


METAR-TAF: